sensor_id;sensor_type;location;lat;lon;timestamp;pressure;altitude;pressure_sealevel;temperature;humidity
4858;BME280;58975;51.978;8.472;2022-09-21T00:06:07;101295.75;;;4.49;100.00
4858;BME280;58975;51.978;8.472;2022-09-21T00:11:04;101289.09;;;4.41;100.00
4858;BME280;58975;51.978;8.472;2022-09-21T00:16:04;101303.56;;;4.31;100.00
4858;BME280;58975;51.978;8.472;2022-09-21T00:21:05;101307.84;;;4.33;100.00
4858;BME280;58975;51.978;8.472;2022-09-21T00:26:10;101308.34;;;4.43;100.00
4858;BME280;58975;51.978;8.472;2022-09-21T00:31:09;101309.63;;;4.33;100.00
4858;BME280;58975;51.978;8.472;2022-09-21T00:36:09;101310.31;;;4.38;100.00
4858;BME280;58975;51.978;8.472;2022-09-21T00:41:06;101319.13;;;4.37;100.00
4858;BME280;58975;51.978;8.472;2022-09-21T00:46:14;101310.53;;;4.32;100.00
4858;BME280;58975;51.978;8.472;2022-09-21T00:51:11;101312.63;;;4.23;100.00
4858;BME280;58975;51.978;8.472;2022-09-21T00:56:09;101320.78;;;4.17;100.00
4858;BME280;58975;51.978;8.472;2022-09-21T01:01:06;101321.84;;;4.13;100.00
4858;BME280;58975;51.978;8.472;2022-09-21T01:06:03;101324.50;;;4.12;100.00
4858;BME280;58975;51.978;8.472;2022-09-21T01:22:54;101316.00;;;4.05;100.00
4858;BME280;58975;51.978;8.472;2022-09-21T01:33:23;101320.88;;;3.93;100.00
4858;BME280;58975;51.978;8.472;2022-09-21T01:38:27;101323.25;;;3.77;100.00
4858;BME280;58975;51.978;8.472;2022-09-21T01:43:31;101325.31;;;3.69;100.00
4858;BME280;58975;51.978;8.472;2022-09-21T01:48:35;101327.44;;;3.83;100.00
4858;BME280;58975;51.978;8.472;2022-09-21T01:53:48;101336.06;;;3.86;100.00
4858;BME280;58975;51.978;8.472;2022-09-21T01:58:51;101330.47;;;3.95;100.00
4858;BME280;58975;51.978;8.472;2022-09-21T02:03:56;101324.38;;;3.93;100.00
4858;BME280;58975;51.978;8.472;2022-09-21T02:08:55;101328.22;;;3.85;100.00
4858;BME280;58975;51.978;8.472;2022-09-21T02:13:53;101333.13;;;3.72;100.00
4858;BME280;58975;51.978;8.472;2022-09-21T02:30:06;101339.16;;;3.74;100.00
4858;BME280;58975;51.978;8.472;2022-09-21T02:35:13;101337.69;;;3.67;100.00
4858;BME280;58975;51.978;8.472;2022-09-21T02:40:35;101334.34;;;3.62;100.00
4858;BME280;58975;51.978;8.472;2022-09-21T02:45:46;101322.91;;;3.63;100.00
4858;BME280;58975;51.978;8.472;2022-09-21T02:50:47;101330.06;;;3.36;100.00
4858;BME280;58975;51.978;8.472;2022-09-21T02:55:45;101335.25;;;3.38;100.00
4858;BME280;58975;51.978;8.472;2022-09-21T03:00:47;101329.97;;;3.38;100.00
4858;BME280;58975;51.978;8.472;2022-09-21T03:05:48;101332.63;;;3.38;100.00
4858;BME280;58975;51.978;8.472;2022-09-21T03:10:46;101335.25;;;3.38;100.00
4858;BME280;58975;51.978;8.472;2022-09-21T03:15:46;101339.03;;;3.30;100.00
4858;BME280;58975;51.978;8.472;2022-09-21T03:20:44;101338.16;;;3.30;100.00
4858;BME280;58975;51.978;8.472;2022-09-21T03:25:44;101348.91;;;3.24;100.00
4858;BME280;58975;51.978;8.472;2022-09-21T03:30:41;101355.16;;;3.21;100.00
4858;BME280;58975;51.978;8.472;2022-09-21T03:35:38;101353.78;;;3.10;100.00
4858;BME280;58975;51.978;8.472;2022-09-21T03:40:37;101351.06;;;3.13;100.00
4858;BME280;58975;51.978;8.472;2022-09-21T03:45:34;101359.75;;;3.15;100.00
4858;BME280;58975;51.978;8.472;2022-09-21T03:50:30;101355.75;;;3.05;100.00
4858;BME280;58975;51.978;8.472;2022-09-21T03:55:27;101359.13;;;3.08;100.00
4858;BME280;58975;51.978;8.472;2022-09-21T04:00:23;101363.28;;;3.14;100.00
4858;BME280;58975;51.978;8.472;2022-09-21T04:05:20;101358.41;;;3.03;100.00
4858;BME280;58975;51.978;8.472;2022-09-21T04:10:19;101353.38;;;2.97;100.00
4858;BME280;58975;51.978;8.472;2022-09-21T04:15:17;101348.44;;;2.86;100.00
4858;BME280;58975;51.978;8.472;2022-09-21T04:20:14;101353.53;;;2.66;100.00
4858;BME280;58975;51.978;8.472;2022-09-21T04:25:11;101357.00;;;2.67;100.00
4858;BME280;58975;51.978;8.472;2022-09-21T04:30:10;101362.09;;;2.73;100.00
4858;BME280;58975;51.978;8.472;2022-09-21T04:35:07;101360.22;;;2.76;100.00
4858;BME280;58975;51.978;8.472;2022-09-21T04:40:04;101358.28;;;2.81;100.00
4858;BME280;58975;51.978;8.472;2022-09-21T04:45:01;101362.47;;;2.87;100.00
4858;BME280;58975;51.978;8.472;2022-09-21T04:49:57;101361.59;;;2.86;100.00
4858;BME280;58975;51.978;8.472;2022-09-21T04:54:54;101367.03;;;2.82;100.00
4858;BME280;58975;51.978;8.472;2022-09-21T04:59:51;101358.97;;;2.86;100.00
4858;BME280;58975;51.978;8.472;2022-09-21T05:04:47;101368.50;;;2.64;100.00
4858;BME280;58975;51.978;8.472;2022-09-21T05:09:46;101375.38;;;2.68;100.00
4858;BME280;58975;51.978;8.472;2022-09-21T05:14:57;101366.44;;;2.74;100.00
4858;BME280;58975;51.978;8.472;2022-09-21T05:19:54;101380.38;;;2.76;100.00
4858;BME280;58975;51.978;8.472;2022-09-21T05:24:50;101382.91;;;2.79;100.00
4858;BME280;58975;51.978;8.472;2022-09-21T05:29:47;101396.59;;;2.90;100.00
4858;BME280;58975;51.978;8.472;2022-09-21T05:34:52;101400.81;;;3.45;100.00
4858;BME280;58975;51.978;8.472;2022-09-21T05:39:53;101397.94;;;4.22;100.00
4858;BME280;58975;51.978;8.472;2022-09-21T05:44:49;101406.59;;;4.48;100.00
4858;BME280;58975;51.978;8.472;2022-09-21T05:50:02;101414.56;;;5.32;100.00
4858;BME280;58975;51.978;8.472;2022-09-21T05:55:08;101423.03;;;5.40;100.00
4858;BME280;58975;51.978;8.472;2022-09-21T06:00:18;101412.69;;;5.74;100.00
4858;BME280;58975;51.978;8.472;2022-09-21T06:05:15;101429.16;;;6.57;100.00
4858;BME280;58975;51.978;8.472;2022-09-21T06:10:12;101431.19;;;7.22;100.00
4858;BME280;58975;51.978;8.472;2022-09-21T06:15:13;101429.59;;;7.37;100.00
4858;BME280;58975;51.978;8.472;2022-09-21T06:20:10;101435.03;;;7.68;100.00
4858;BME280;58975;51.978;8.472;2022-09-21T06:25:06;101436.03;;;7.14;100.00
4858;BME280;58975;51.978;8.472;2022-09-21T06:30:03;101428.84;;;6.99;100.00
4858;BME280;58975;51.978;8.472;2022-09-21T06:35:00;101427.69;;;7.22;100.00
4858;BME280;58975;51.978;8.472;2022-09-21T06:39:56;101417.56;;;7.47;100.00
4858;BME280;58975;51.978;8.472;2022-09-21T06:44:53;101392.72;;;7.82;100.00
4858;BME280;58975;51.978;8.472;2022-09-21T06:49:50;101388.78;;;8.22;100.00
4858;BME280;58975;51.978;8.472;2022-09-21T06:54:48;101381.44;;;8.43;100.00
4858;BME280;58975;51.978;8.472;2022-09-21T06:59:44;101378.69;;;8.60;100.00
4858;BME280;58975;51.978;8.472;2022-09-21T07:04:42;101380.28;;;8.78;100.00
4858;BME280;58975;51.978;8.472;2022-09-21T07:09:39;101377.34;;;8.98;100.00
4858;BME280;58975;51.978;8.472;2022-09-21T07:14:55;101379.34;;;9.25;100.00
4858;BME280;58975;51.978;8.472;2022-09-21T07:19:51;101371.69;;;9.48;100.00
4858;BME280;58975;51.978;8.472;2022-09-21T07:24:48;101378.16;;;9.59;100.00
4858;BME280;58975;51.978;8.472;2022-09-21T07:29:44;101382.63;;;9.86;100.00
4858;BME280;58975;51.978;8.472;2022-09-21T07:34:40;101381.84;;;10.13;100.00
4858;BME280;58975;51.978;8.472;2022-09-21T07:39:36;101389.97;;;10.25;100.00
4858;BME280;58975;51.978;8.472;2022-09-21T07:44:34;101388.41;;;10.50;100.00
4858;BME280;58975;51.978;8.472;2022-09-21T07:49:30;101379.25;;;10.54;100.00
4858;BME280;58975;51.978;8.472;2022-09-21T07:54:26;101384.97;;;10.74;100.00
4858;BME280;58975;51.978;8.472;2022-09-21T07:59:22;101384.81;;;11.17;100.00
4858;BME280;58975;51.978;8.472;2022-09-21T08:04:19;101390.59;;;11.36;100.00
4858;BME280;58975;51.978;8.472;2022-09-21T08:09:15;101382.72;;;11.47;100.00
4858;BME280;58975;51.978;8.472;2022-09-21T08:14:12;101390.41;;;11.64;100.00
4858;BME280;58975;51.978;8.472;2022-09-21T08:19:21;101392.56;;;11.84;100.00
4858;BME280;58975;51.978;8.472;2022-09-21T08:24:20;101397.66;;;12.13;100.00
4858;BME280;58975;51.978;8.472;2022-09-21T08:29:17;101401.50;;;12.34;100.00
4858;BME280;58975;51.978;8.472;2022-09-21T08:34:13;101404.81;;;12.61;100.00
4858;BME280;58975;51.978;8.472;2022-09-21T08:39:11;101408.97;;;12.29;100.00
4858;BME280;58975;51.978;8.472;2022-09-21T08:44:14;101404.03;;;12.36;100.00
4858;BME280;58975;51.978;8.472;2022-09-21T08:49:20;101409.47;;;12.70;100.00
4858;BME280;58975;51.978;8.472;2022-09-21T08:54:24;101412.91;;;12.96;100.00
4858;BME280;58975;51.978;8.472;2022-09-21T08:59:22;101417.78;;;12.78;100.00
4858;BME280;58975;51.978;8.472;2022-09-21T09:04:27;101415.00;;;12.56;100.00
4858;BME280;58975;51.978;8.472;2022-09-21T09:09:50;101410.28;;;12.11;100.00
4858;BME280;58975;51.978;8.472;2022-09-21T09:20:21;101417.88;;;12.90;100.00
4858;BME280;58975;51.978;8.472;2022-09-21T09:25:23;101414.38;;;13.13;100.00
4858;BME280;58975;51.978;8.472;2022-09-21T09:30:27;101415.53;;;14.12;100.00
4858;BME280;58975;51.978;8.472;2022-09-21T09:35:44;101427.13;;;14.01;100.00
4858;BME280;58975;51.978;8.472;2022-09-21T09:51:47;101422.63;;;14.02;100.00
4858;BME280;58975;51.978;8.472;2022-09-21T09:56:44;101423.06;;;13.85;100.00
4858;BME280;58975;51.978;8.472;2022-09-21T10:01:43;101429.22;;;14.53;100.00
4858;BME280;58975;51.978;8.472;2022-09-21T10:06:42;101432.22;;;14.71;100.00
4858;BME280;58975;51.978;8.472;2022-09-21T10:11:42;101435.41;;;15.08;100.00
4858;BME280;58975;51.978;8.472;2022-09-21T10:16:42;101433.13;;;14.49;100.00
4858;BME280;58975;51.978;8.472;2022-09-21T10:21:39;101427.09;;;14.68;100.00
4858;BME280;58975;51.978;8.472;2022-09-21T10:26:49;101423.72;;;13.99;100.00
4858;BME280;58975;51.978;8.472;2022-09-21T10:32:04;101427.72;;;14.05;100.00
4858;BME280;58975;51.978;8.472;2022-09-21T10:37:25;101422.50;;;15.02;100.00
4858;BME280;58975;51.978;8.472;2022-09-21T10:42:22;101425.97;;;16.07;100.00
4858;BME280;58975;51.978;8.472;2022-09-21T10:47:28;101427.09;;;16.66;100.00
4858;BME280;58975;51.978;8.472;2022-09-21T10:52:38;101430.66;;;16.76;100.00
4858;BME280;58975;51.978;8.472;2022-09-21T10:57:39;101419.94;;;17.24;100.00
4858;BME280;58975;51.978;8.472;2022-09-21T11:02:36;101422.34;;;17.75;100.00
4858;BME280;58975;51.978;8.472;2022-09-21T11:07:40;101430.00;;;17.31;100.00
4858;BME280;58975;51.978;8.472;2022-09-21T11:12:52;101425.66;;;16.62;100.00
4858;BME280;58975;51.978;8.472;2022-09-21T11:17:59;101429.88;;;16.24;100.00
4858;BME280;58975;51.978;8.472;2022-09-21T11:23:03;101418.91;;;16.06;100.00
4858;BME280;58975;51.978;8.472;2022-09-21T11:28:21;101426.91;;;15.97;100.00
4858;BME280;58975;51.978;8.472;2022-09-21T11:38:54;101424.78;;;16.21;100.00
4858;BME280;58975;51.978;8.472;2022-09-21T11:49:30;101412.25;;;16.41;100.00
4858;BME280;58975;51.978;8.472;2022-09-21T11:54:47;101401.13;;;16.15;100.00
4858;BME280;58975;51.978;8.472;2022-09-21T12:05:02;101392.19;;;15.84;100.00
4858;BME280;58975;51.978;8.472;2022-09-21T12:10:38;101389.38;;;16.06;100.00
4858;BME280;58975;51.978;8.472;2022-09-21T12:15:46;101390.81;;;16.20;100.00
4858;BME280;58975;51.978;8.472;2022-09-21T12:20:57;101388.19;;;16.30;100.00
4858;BME280;58975;51.978;8.472;2022-09-21T12:25:57;101380.53;;;16.35;100.00
4858;BME280;58975;51.978;8.472;2022-09-21T12:30:58;101382.56;;;16.42;100.00
4858;BME280;58975;51.978;8.472;2022-09-21T12:36:03;101382.25;;;16.95;100.00
4858;BME280;58975;51.978;8.472;2022-09-21T12:41:21;101388.75;;;17.69;84.98
4858;BME280;58975;51.978;8.472;2022-09-21T12:46:32;101379.44;;;18.01;77.63
4858;BME280;58975;51.978;8.472;2022-09-21T12:51:38;101377.84;;;17.52;76.48
4858;BME280;58975;51.978;8.472;2022-09-21T12:56:42;101369.50;;;16.78;96.81
4858;BME280;58975;51.978;8.472;2022-09-21T13:12:23;101364.94;;;16.69;85.27
4858;BME280;58975;51.978;8.472;2022-09-21T13:17:23;101355.19;;;16.87;78.54
4858;BME280;58975;51.978;8.472;2022-09-21T13:22:23;101348.66;;;17.37;70.94
4858;BME280;58975;51.978;8.472;2022-09-21T13:27:20;101343.28;;;17.28;68.73
4858;BME280;58975;51.978;8.472;2022-09-21T13:37:25;101339.03;;;17.06;70.25
4858;BME280;58975;51.978;8.472;2022-09-21T13:47:32;101338.03;;;17.92;64.73
4858;BME280;58975;51.978;8.472;2022-09-21T13:52:35;101336.84;;;16.42;63.81
4858;BME280;58975;51.978;8.472;2022-09-21T13:57:39;101327.25;;;16.49;66.66
4858;BME280;58975;51.978;8.472;2022-09-21T14:07:45;101318.91;;;16.52;62.78
4858;BME280;58975;51.978;8.472;2022-09-21T14:12:43;101313.50;;;17.39;63.77
4858;BME280;58975;51.978;8.472;2022-09-21T14:17:41;101316.19;;;17.58;61.71
4858;BME280;58975;51.978;8.472;2022-09-21T14:22:39;101314.44;;;17.01;62.68
4858;BME280;58975;51.978;8.472;2022-09-21T14:27:40;101301.97;;;17.00;66.05
4858;BME280;58975;51.978;8.472;2022-09-21T14:32:44;101309.03;;;17.11;64.66
4858;BME280;58975;51.978;8.472;2022-09-21T14:37:51;101299.59;;;17.63;61.52
4858;BME280;58975;51.978;8.472;2022-09-21T14:42:52;101298.41;;;16.71;69.45
4858;BME280;58975;51.978;8.472;2022-09-21T14:48:16;101292.00;;;16.52;76.58
4858;BME280;58975;51.978;8.472;2022-09-21T14:53:31;101290.84;;;16.26;72.83
4858;BME280;58975;51.978;8.472;2022-09-21T15:09:59;101285.06;;;16.40;72.66
4858;BME280;58975;51.978;8.472;2022-09-21T15:15:43;101283.50;;;16.38;76.62
4858;BME280;58975;51.978;8.472;2022-09-21T15:20:43;101278.75;;;16.61;71.98
4858;BME280;58975;51.978;8.472;2022-09-21T15:25:40;101272.19;;;16.53;70.61
4858;BME280;58975;51.978;8.472;2022-09-21T15:30:41;101283.63;;;16.36;74.94
4858;BME280;58975;51.978;8.472;2022-09-21T15:35:44;101269.22;;;16.37;72.32
4858;BME280;58975;51.978;8.472;2022-09-21T15:40:46;101265.38;;;16.30;69.74
4858;BME280;58975;51.978;8.472;2022-09-21T15:50:54;101261.00;;;16.39;74.58
4858;BME280;58975;51.978;8.472;2022-09-21T15:55:53;101259.44;;;16.55;72.79
4858;BME280;58975;51.978;8.472;2022-09-21T16:00:52;101256.66;;;16.67;68.74
4858;BME280;58975;51.978;8.472;2022-09-21T16:05:52;101259.31;;;16.95;69.71
4858;BME280;58975;51.978;8.472;2022-09-21T16:10:51;101263.66;;;17.25;70.84
4858;BME280;58975;51.978;8.472;2022-09-21T16:16:10;101254.66;;;16.97;75.98
4858;BME280;58975;51.978;8.472;2022-09-21T16:21:14;101261.72;;;16.41;66.64
4858;BME280;58975;51.978;8.472;2022-09-21T16:26:35;101258.06;;;16.71;70.80
4858;BME280;58975;51.978;8.472;2022-09-21T16:31:33;101256.66;;;20.32;56.19
4858;BME280;58975;51.978;8.472;2022-09-21T16:36:37;101248.25;;;24.76;46.13
4858;BME280;58975;51.978;8.472;2022-09-21T16:41:38;101238.47;;;25.59;39.02
4858;BME280;58975;51.978;8.472;2022-09-21T16:46:36;101242.19;;;25.23;38.17
4858;BME280;58975;51.978;8.472;2022-09-21T16:51:32;101256.78;;;24.31;39.28
4858;BME280;58975;51.978;8.472;2022-09-21T16:56:29;101252.69;;;23.32;42.10
4858;BME280;58975;51.978;8.472;2022-09-21T17:01:27;101260.66;;;21.81;46.57
4858;BME280;58975;51.978;8.472;2022-09-21T17:06:24;101269.63;;;18.83;54.70
4858;BME280;58975;51.978;8.472;2022-09-21T17:11:20;101260.75;;;16.71;68.51
4858;BME280;58975;51.978;8.472;2022-09-21T17:16:18;101257.41;;;15.39;96.22
4858;BME280;58975;51.978;8.472;2022-09-21T17:21:16;101259.88;;;14.48;100.00
4858;BME280;58975;51.978;8.472;2022-09-21T17:26:16;101256.00;;;13.87;100.00
4858;BME280;58975;51.978;8.472;2022-09-21T17:31:15;101253.31;;;13.20;100.00
4858;BME280;58975;51.978;8.472;2022-09-21T17:36:12;101252.75;;;12.58;100.00
4858;BME280;58975;51.978;8.472;2022-09-21T17:51:57;101249.13;;;11.37;100.00
4858;BME280;58975;51.978;8.472;2022-09-21T17:57:43;101239.03;;;11.05;100.00
4858;BME280;58975;51.978;8.472;2022-09-21T18:02:42;101232.72;;;10.80;100.00
4858;BME280;58975;51.978;8.472;2022-09-21T18:07:38;101234.16;;;10.59;100.00
4858;BME280;58975;51.978;8.472;2022-09-21T18:12:47;101239.22;;;10.37;100.00
4858;BME280;58975;51.978;8.472;2022-09-21T18:18:01;101238.13;;;10.27;100.00
4858;BME280;58975;51.978;8.472;2022-09-21T18:23:13;101240.78;;;10.13;100.00
4858;BME280;58975;51.978;8.472;2022-09-21T18:28:25;101241.59;;;10.01;100.00
4858;BME280;58975;51.978;8.472;2022-09-21T18:38:50;101239.88;;;9.59;100.00
4858;BME280;58975;51.978;8.472;2022-09-21T18:44:02;101235.03;;;9.51;100.00
4858;BME280;58975;51.978;8.472;2022-09-21T18:49:29;101236.75;;;9.38;100.00
4858;BME280;58975;51.978;8.472;2022-09-21T18:54:28;101238.47;;;9.25;100.00
4858;BME280;58975;51.978;8.472;2022-09-21T18:59:25;101236.25;;;9.03;100.00
4858;BME280;58975;51.978;8.472;2022-09-21T19:04:27;101241.28;;;8.93;100.00
4858;BME280;58975;51.978;8.472;2022-09-21T19:09:36;101236.31;;;8.87;100.00
4858;BME280;58975;51.978;8.472;2022-09-21T19:14:43;101232.53;;;8.77;100.00
4858;BME280;58975;51.978;8.472;2022-09-21T19:25:18;101234.38;;;8.61;100.00
4858;BME280;58975;51.978;8.472;2022-09-21T19:30:16;101239.38;;;8.51;100.00
4858;BME280;58975;51.978;8.472;2022-09-21T19:35:17;101236.59;;;8.39;100.00
4858;BME280;58975;51.978;8.472;2022-09-21T19:40:16;101236.25;;;8.29;100.00
4858;BME280;58975;51.978;8.472;2022-09-21T19:50:48;101230.00;;;8.15;100.00
4858;BME280;58975;51.978;8.472;2022-09-21T19:55:48;101225.16;;;7.91;100.00
4858;BME280;58975;51.978;8.472;2022-09-21T20:01:03;101227.63;;;7.79;100.00
4858;BME280;58975;51.978;8.472;2022-09-21T20:06:25;101226.84;;;7.77;100.00
4858;BME280;58975;51.978;8.472;2022-09-21T20:11:37;101226.97;;;7.75;100.00
4858;BME280;58975;51.978;8.472;2022-09-21T20:16:47;101228.25;;;7.68;100.00
4858;BME280;58975;51.978;8.472;2022-09-21T20:21:47;101225.72;;;7.65;100.00
4858;BME280;58975;51.978;8.472;2022-09-21T20:26:47;101233.25;;;7.57;100.00
4858;BME280;58975;51.978;8.472;2022-09-21T20:31:46;101228.63;;;7.45;100.00
4858;BME280;58975;51.978;8.472;2022-09-21T20:36:43;101223.47;;;7.26;100.00
4858;BME280;58975;51.978;8.472;2022-09-21T20:41:40;101232.50;;;7.22;100.00
4858;BME280;58975;51.978;8.472;2022-09-21T20:46:36;101222.44;;;7.13;100.00
4858;BME280;58975;51.978;8.472;2022-09-21T20:51:33;101223.53;;;7.09;100.00
4858;BME280;58975;51.978;8.472;2022-09-21T20:56:32;101230.44;;;7.11;100.00
4858;BME280;58975;51.978;8.472;2022-09-21T21:01:28;101234.03;;;7.10;100.00
4858;BME280;58975;51.978;8.472;2022-09-21T21:06:25;101232.00;;;7.16;100.00
4858;BME280;58975;51.978;8.472;2022-09-21T21:11:21;101232.00;;;6.98;100.00
4858;BME280;58975;51.978;8.472;2022-09-21T21:16:18;101231.41;;;6.93;100.00
4858;BME280;58975;51.978;8.472;2022-09-21T21:21:14;101242.16;;;6.90;100.00
4858;BME280;58975;51.978;8.472;2022-09-21T21:26:11;101244.34;;;6.82;100.00
4858;BME280;58975;51.978;8.472;2022-09-21T21:31:07;101246.63;;;6.73;100.00
4858;BME280;58975;51.978;8.472;2022-09-21T21:36:05;101254.53;;;6.55;100.00
4858;BME280;58975;51.978;8.472;2022-09-21T21:41:03;101255.88;;;6.47;100.00
4858;BME280;58975;51.978;8.472;2022-09-21T21:46:00;101248.06;;;6.44;100.00
4858;BME280;58975;51.978;8.472;2022-09-21T21:50:59;101258.97;;;6.38;100.00
4858;BME280;58975;51.978;8.472;2022-09-21T21:56:13;101251.59;;;6.27;100.00
4858;BME280;58975;51.978;8.472;2022-09-21T22:01:17;101249.00;;;6.26;100.00
4858;BME280;58975;51.978;8.472;2022-09-21T22:06:17;101250.84;;;6.24;100.00
4858;BME280;58975;51.978;8.472;2022-09-21T22:11:13;101252.31;;;6.12;100.00
4858;BME280;58975;51.978;8.472;2022-09-21T22:16:14;101252.69;;;6.04;100.00
4858;BME280;58975;51.978;8.472;2022-09-21T22:21:46;101251.41;;;5.94;100.00
4858;BME280;58975;51.978;8.472;2022-09-21T22:26:39;101248.78;;;5.94;100.00
4858;BME280;58975;51.978;8.472;2022-09-21T22:31:39;101244.63;;;5.89;100.00
4858;BME280;58975;51.978;8.472;2022-09-21T22:36:36;101237.88;;;5.82;100.00
4858;BME280;58975;51.978;8.472;2022-09-21T22:41:35;101242.31;;;5.81;100.00
4858;BME280;58975;51.978;8.472;2022-09-21T22:46:32;101243.53;;;5.74;100.00
4858;BME280;58975;51.978;8.472;2022-09-21T22:51:29;101239.63;;;5.64;100.00
4858;BME280;58975;51.978;8.472;2022-09-21T22:56:28;101242.53;;;5.58;100.00
4858;BME280;58975;51.978;8.472;2022-09-21T23:01:26;101240.00;;;5.56;100.00
4858;BME280;58975;51.978;8.472;2022-09-21T23:06:24;101231.63;;;5.47;100.00
4858;BME280;58975;51.978;8.472;2022-09-21T23:11:24;101232.03;;;5.38;100.00
4858;BME280;58975;51.978;8.472;2022-09-21T23:16:25;101232.19;;;5.35;100.00
4858;BME280;58975;51.978;8.472;2022-09-21T23:21:25;101234.06;;;5.33;100.00
4858;BME280;58975;51.978;8.472;2022-09-21T23:26:22;101237.31;;;5.38;100.00
4858;BME280;58975;51.978;8.472;2022-09-21T23:31:20;101232.47;;;5.29;100.00
4858;BME280;58975;51.978;8.472;2022-09-21T23:36:20;101236.19;;;5.24;100.00
4858;BME280;58975;51.978;8.472;2022-09-21T23:41:24;101238.00;;;5.22;100.00
4858;BME280;58975;51.978;8.472;2022-09-21T23:46:24;101228.47;;;5.20;100.00
4858;BME280;58975;51.978;8.472;2022-09-21T23:51:21;101230.28;;;5.18;100.00
4858;BME280;58975;51.978;8.472;2022-09-21T23:56:20;101231.72;;;5.06;100.00
